Tonder, Denmark
Current Conditions -  °F | °C
As of 6:20 PM on Tuesday 21 Oct 2014 (Local Time) from EDXW Reporting Station
Broken Clouds Broken Clouds  
Wind Chill: 54°   Ceiling: 15000
Heat Index: 54°   Visibility: 6mi
Dew Point: 52°   Wind: 22mph
Humidity: 94%   Direction: 280°W
Pressure: 29.26"   Gusts: NA
Location:  54.93°N, 8.87°E
Report Text: EDXW 211620Z 28019KT 9000 FEW010 SCT035 BKN150 12/11 Q0991 RERA RMK ATIS UNI
Loading
Personal Weather Stations






























Interactive Weather Map
Tropical Storm Tracking
New forecast layout! Learn more

10-Day Weather Forecast

Advertisements
Track Severe Weather on mobile